Little Rock Air Force Base, Arkansas
Current Conditions -  °F | °C
As of 8:58 PM on Monday 22 Dec 2014 (Local Time) from KLRF Reporting Station
Haze Haze  
Wind Chill: 11°   Ceiling: 6500
Heat Index: 11°   Visibility: 4mi
Dew Point: 11°   Wind: 0mph
Humidity: 99%   Direction: NA
Pressure: 29.64"   Gusts: NA
Location:  34.9074°N, 92.1397°W
Report Text: KLRF 230258Z AUTO 00000KT 4SM BR SCT009 OVC065 11/11 A2964 RMK AO2 RAB0203E0217DZB0217E0219 SLP040 P0001 60001 T01100109 51028
Loading
Personal Weather Stations






























Interactive Weather Map New forecast layout! Learn more

10-Day Weather Forecast

Advertisements
Track Severe Weather on mobile